sensor_id;sensor_type;location;lat;lon;timestamp;pressure;altitude;pressure_sealevel;temperature;humidity
56241;BME280;42155;53.096;23.226;2022-09-13T00:00:49;99690.50;;;11.13;84.21
56241;BME280;42155;53.096;23.226;2022-09-13T00:02:49;99689.69;;;11.12;83.94
56241;BME280;42155;53.096;23.226;2022-09-13T00:04:49;99705.34;;;11.15;84.00
56241;BME280;42155;53.096;23.226;2022-09-13T00:06:50;99703.94;;;11.11;84.24
56241;BME280;42155;53.096;23.226;2022-09-13T00:08:50;99687.78;;;10.93;84.38
56241;BME280;42155;53.096;23.226;2022-09-13T00:10:50;99668.72;;;10.79;84.54
56241;BME280;42155;53.096;23.226;2022-09-13T00:12:51;99720.22;;;10.97;84.89
56241;BME280;42155;53.096;23.226;2022-09-13T00:14:52;99712.25;;;10.97;84.79
56241;BME280;42155;53.096;23.226;2022-09-13T00:16:52;99721.22;;;10.96;85.09
56241;BME280;42155;53.096;23.226;2022-09-13T00:18:53;99730.25;;;10.93;84.41
56241;BME280;42155;53.096;23.226;2022-09-13T00:21:03;99723.41;;;10.91;84.46
56241;BME280;42155;53.096;23.226;2022-09-13T00:23:03;99691.44;;;10.71;84.71
56241;BME280;42155;53.096;23.226;2022-09-13T00:25:05;99720.56;;;10.83;84.14
56241;BME280;42155;53.096;23.226;2022-09-13T00:27:05;99709.75;;;10.75;84.42
56241;BME280;42155;53.096;23.226;2022-09-13T00:29:05;99714.63;;;10.69;84.75
56241;BME280;42155;53.096;23.226;2022-09-13T00:31:07;99718.25;;;10.68;84.83
56241;BME280;42155;53.096;23.226;2022-09-13T00:33:08;99698.63;;;10.60;84.47
56241;BME280;42155;53.096;23.226;2022-09-13T00:35:08;99649.94;;;10.08;84.30
56241;BME280;42155;53.096;23.226;2022-09-13T00:37:09;99708.03;;;10.64;84.65
56241;BME280;42155;53.096;23.226;2022-09-13T00:39:10;99705.47;;;10.62;84.48
56241;BME280;42155;53.096;23.226;2022-09-13T00:41:13;99689.88;;;10.48;84.30
56241;BME280;42155;53.096;23.226;2022-09-13T00:43:18;99708.41;;;10.59;84.14
56241;BME280;42155;53.096;23.226;2022-09-13T00:45:19;99706.47;;;10.61;83.79
56241;BME280;42155;53.096;23.226;2022-09-13T00:49:39;99705.47;;;10.62;83.14
56241;BME280;42155;53.096;23.226;2022-09-13T00:51:43;99704.06;;;10.58;82.86
56241;BME280;42155;53.096;23.226;2022-09-13T00:53:48;99706.41;;;10.52;82.56
56241;BME280;42155;53.096;23.226;2022-09-13T00:56:00;99712.09;;;10.47;82.59
56241;BME280;42155;53.096;23.226;2022-09-13T00:58:06;99716.25;;;10.40;82.45
56241;BME280;42155;53.096;23.226;2022-09-13T01:00:10;99673.44;;;10.12;82.07
56241;BME280;42155;53.096;23.226;2022-09-13T01:02:12;99714.09;;;10.34;81.99
56241;BME280;42155;53.096;23.226;2022-09-13T01:04:14;99709.44;;;10.26;82.01
56241;BME280;42155;53.096;23.226;2022-09-13T01:06:20;99713.50;;;10.30;81.98
56241;BME280;42155;53.096;23.226;2022-09-13T01:08:23;99699.94;;;10.12;81.96
56241;BME280;42155;53.096;23.226;2022-09-13T01:10:23;99715.09;;;10.22;82.14
56241;BME280;42155;53.096;23.226;2022-09-13T01:12:41;99711.94;;;10.16;81.86
56241;BME280;42155;53.096;23.226;2022-09-13T01:14:42;99703.28;;;10.14;81.52
56241;BME280;42155;53.096;23.226;2022-09-13T01:16:43;99692.38;;;9.97;81.74
56241;BME280;42155;53.096;23.226;2022-09-13T01:18:43;99708.28;;;10.08;81.61
56241;BME280;42155;53.096;23.226;2022-09-13T01:30:19;99709.94;;;10.09;81.76
56241;BME280;42155;53.096;23.226;2022-09-13T01:32:35;99708.13;;;10.09;81.79
56241;BME280;42155;53.096;23.226;2022-09-13T01:39:42;99703.06;;;10.17;82.05
56241;BME280;42155;53.096;23.226;2022-09-13T01:42:21;99695.78;;;10.19;81.91
56241;BME280;42155;53.096;23.226;2022-09-13T01:46:42;99656.84;;;9.99;81.76
56241;BME280;42155;53.096;23.226;2022-09-13T01:49:00;99671.00;;;10.09;81.71
56241;BME280;42155;53.096;23.226;2022-09-13T01:55:25;99696.03;;;10.28;81.81
56241;BME280;42155;53.096;23.226;2022-09-13T01:57:52;99672.00;;;10.08;82.15
56241;BME280;42155;53.096;23.226;2022-09-13T02:00:00;99683.09;;;10.02;82.68
56241;BME280;42155;53.096;23.226;2022-09-13T02:02:07;99702.69;;;10.11;82.95
56241;BME280;42155;53.096;23.226;2022-09-13T02:04:22;99696.56;;;10.10;83.06
56241;BME280;42155;53.096;23.226;2022-09-13T02:06:51;99701.63;;;10.13;82.74
56241;BME280;42155;53.096;23.226;2022-09-13T02:08:59;99696.03;;;10.16;82.42
56241;BME280;42155;53.096;23.226;2022-09-13T02:11:10;99673.06;;;10.06;82.44
56241;BME280;42155;53.096;23.226;2022-09-13T02:13:16;99691.22;;;10.22;82.01
56241;BME280;42155;53.096;23.226;2022-09-13T02:15:31;99698.31;;;10.21;82.18
56241;BME280;42155;53.096;23.226;2022-09-13T02:17:37;99686.03;;;10.20;81.92
56241;BME280;42155;53.096;23.226;2022-09-13T02:19:57;99685.19;;;10.19;82.16
56241;BME280;42155;53.096;23.226;2022-09-13T02:22:00;99668.88;;;10.03;81.88
56241;BME280;42155;53.096;23.226;2022-09-13T02:24:29;99688.81;;;10.18;82.20
56241;BME280;42155;53.096;23.226;2022-09-13T02:26:33;99691.59;;;10.17;82.19
56241;BME280;42155;53.096;23.226;2022-09-13T02:28:39;99641.44;;;9.93;81.88
56241;BME280;42155;53.096;23.226;2022-09-13T02:30:46;99680.03;;;10.18;81.73
56241;BME280;42155;53.096;23.226;2022-09-13T02:32:55;99665.72;;;10.09;81.96
56241;BME280;42155;53.096;23.226;2022-09-13T02:35:11;99686.75;;;10.22;81.85
56241;BME280;42155;53.096;23.226;2022-09-13T02:37:13;99680.63;;;10.22;81.93
56241;BME280;42155;53.096;23.226;2022-09-13T02:39:15;99684.94;;;10.23;82.13
56241;BME280;42155;53.096;23.226;2022-09-13T02:41:22;99677.72;;;10.25;81.92
56241;BME280;42155;53.096;23.226;2022-09-13T02:43:53;99691.44;;;10.30;81.99
56241;BME280;42155;53.096;23.226;2022-09-13T02:46:19;99650.50;;;10.11;81.92
56241;BME280;42155;53.096;23.226;2022-09-13T02:50:49;99677.69;;;10.36;81.81
56241;BME280;42155;53.096;23.226;2022-09-13T02:57:41;99666.69;;;10.40;82.58
56241;BME280;42155;53.096;23.226;2022-09-13T02:59:48;99677.47;;;10.49;82.07
56241;BME280;42155;53.096;23.226;2022-09-13T03:02:02;99670.22;;;10.51;82.10
56241;BME280;42155;53.096;23.226;2022-09-13T03:04:04;99663.63;;;10.45;82.80
56241;BME280;42155;53.096;23.226;2022-09-13T03:06:05;99672.59;;;10.54;82.50
56241;BME280;42155;53.096;23.226;2022-09-13T03:08:08;99667.03;;;10.57;82.08
56241;BME280;42155;53.096;23.226;2022-09-13T03:10:11;99671.25;;;10.59;82.57
56241;BME280;42155;53.096;23.226;2022-09-13T03:17:12;99662.06;;;10.63;82.17
56241;BME280;42155;53.096;23.226;2022-09-13T03:19:34;99674.38;;;10.64;82.58
56241;BME280;42155;53.096;23.226;2022-09-13T03:26:05;99669.06;;;10.64;83.03
56241;BME280;42155;53.096;23.226;2022-09-13T03:30:29;99669.06;;;10.64;82.61
56241;BME280;42155;53.096;23.226;2022-09-13T03:32:58;99663.94;;;10.73;82.55
56241;BME280;42155;53.096;23.226;2022-09-13T03:38:02;99659.31;;;10.75;82.48
56241;BME280;42155;53.096;23.226;2022-09-13T03:40:12;99658.22;;;10.77;82.16
56241;BME280;42155;53.096;23.226;2022-09-13T03:42:47;99666.06;;;10.79;82.85
56241;BME280;42155;53.096;23.226;2022-09-13T03:44:51;99668.47;;;10.82;82.21
56241;BME280;42155;53.096;23.226;2022-09-13T03:46:57;99662.16;;;10.83;82.80
56241;BME280;42155;53.096;23.226;2022-09-13T03:49:02;99663.84;;;10.84;82.38
56241;BME280;42155;53.096;23.226;2022-09-13T03:51:07;99662.75;;;10.86;82.19
56241;BME280;42155;53.096;23.226;2022-09-13T03:53:11;99658.28;;;10.87;83.02
56241;BME280;42155;53.096;23.226;2022-09-13T03:55:13;99659.94;;;10.88;82.68
56241;BME280;42155;53.096;23.226;2022-09-13T03:57:16;99652.81;;;10.88;82.84
56241;BME280;42155;53.096;23.226;2022-09-13T03:59:17;99651.00;;;10.89;83.00
56241;BME280;42155;53.096;23.226;2022-09-13T04:01:19;99646.44;;;10.91;82.47
56241;BME280;42155;53.096;23.226;2022-09-13T04:03:20;99645.44;;;10.92;82.63
56241;BME280;42155;53.096;23.226;2022-09-13T04:05:20;99651.72;;;10.91;82.45
56241;BME280;42155;53.096;23.226;2022-09-13T04:07:23;99657.03;;;10.91;82.73
56241;BME280;42155;53.096;23.226;2022-09-13T04:09:23;99634.50;;;10.85;82.45
56241;BME280;42155;53.096;23.226;2022-09-13T04:11:24;99648.94;;;10.92;83.01
56241;BME280;42155;53.096;23.226;2022-09-13T04:13:24;99650.47;;;10.95;82.14
56241;BME280;42155;53.096;23.226;2022-09-13T04:15:25;99646.88;;;10.96;83.09
56241;BME280;42155;53.096;23.226;2022-09-13T04:17:25;99649.38;;;10.98;82.45
56241;BME280;42155;53.096;23.226;2022-09-13T04:19:26;99655.53;;;10.98;82.99
56241;BME280;42155;53.096;23.226;2022-09-13T04:21:26;99655.25;;;11.01;83.05
56241;BME280;42155;53.096;23.226;2022-09-13T04:23:28;99635.00;;;11.00;83.13
56241;BME280;42155;53.096;23.226;2022-09-13T04:25:28;99647.72;;;11.06;83.00
56241;BME280;42155;53.096;23.226;2022-09-13T04:27:29;99648.56;;;11.07;82.86
56241;BME280;42155;53.096;23.226;2022-09-13T04:29:29;99645.78;;;11.08;82.39
56241;BME280;42155;53.096;23.226;2022-09-13T04:31:29;99651.50;;;11.13;82.86
56241;BME280;42155;53.096;23.226;2022-09-13T04:33:30;99647.75;;;11.16;82.64
56241;BME280;42155;53.096;23.226;2022-09-13T04:35:30;99641.34;;;11.18;82.41
56241;BME280;42155;53.096;23.226;2022-09-13T04:37:30;99649.19;;;11.20;82.42
56241;BME280;42155;53.096;23.226;2022-09-13T04:39:31;99645.41;;;11.22;82.18
56241;BME280;42155;53.096;23.226;2022-09-13T04:41:31;99647.78;;;11.26;82.59
56241;BME280;42155;53.096;23.226;2022-09-13T04:43:32;99643.06;;;11.29;82.62
56241;BME280;42155;53.096;23.226;2022-09-13T04:45:32;99640.97;;;11.33;82.24
56241;BME280;42155;53.096;23.226;2022-09-13T04:47:32;99642.50;;;11.35;82.50
56241;BME280;42155;53.096;23.226;2022-09-13T04:49:33;99624.88;;;11.25;82.24
56241;BME280;42155;53.096;23.226;2022-09-13T04:51:33;99642.81;;;11.42;82.60
56241;BME280;42155;53.096;23.226;2022-09-13T04:53:33;99648.81;;;11.44;82.66
56241;BME280;42155;53.096;23.226;2022-09-13T04:55:34;99641.53;;;11.46;82.70
56241;BME280;42155;53.096;23.226;2022-09-13T04:57:34;99637.63;;;11.50;82.26
56241;BME280;42155;53.096;23.226;2022-09-13T04:59:34;99639.34;;;11.51;82.49
56241;BME280;42155;53.096;23.226;2022-09-13T05:01:35;99637.38;;;11.53;82.42
56241;BME280;42155;53.096;23.226;2022-09-13T05:03:36;99599.16;;;11.35;82.07
56241;BME280;42155;53.096;23.226;2022-09-13T05:05:37;99630.81;;;11.57;82.30
56241;BME280;42155;53.096;23.226;2022-09-13T05:07:37;99623.09;;;11.54;81.96
56241;BME280;42155;53.096;23.226;2022-09-13T05:09:37;99620.84;;;11.50;82.46
56241;BME280;42155;53.096;23.226;2022-09-13T05:11:38;99630.09;;;11.55;82.13
56241;BME280;42155;53.096;23.226;2022-09-13T05:13:38;99601.69;;;11.46;82.39
56241;BME280;42155;53.096;23.226;2022-09-13T05:15:38;99625.22;;;11.60;81.97
56241;BME280;42155;53.096;23.226;2022-09-13T05:17:39;99642.44;;;11.66;81.85
56241;BME280;42155;53.096;23.226;2022-09-13T05:19:39;99629.00;;;11.67;81.63
56241;BME280;42155;53.096;23.226;2022-09-13T05:21:39;99635.72;;;11.71;82.16
56241;BME280;42155;53.096;23.226;2022-09-13T05:23:40;99634.59;;;11.74;81.58
56241;BME280;42155;53.096;23.226;2022-09-13T05:25:40;99625.75;;;11.73;81.95
56241;BME280;42155;53.096;23.226;2022-09-13T05:27:40;99636.41;;;11.73;81.46
56241;BME280;42155;53.096;23.226;2022-09-13T05:29:41;99634.72;;;11.72;81.46
56241;BME280;42155;53.096;23.226;2022-09-13T05:31:42;99636.41;;;11.73;81.41
56241;BME280;42155;53.096;23.226;2022-09-13T05:33:43;99631.09;;;11.73;81.13
56241;BME280;42155;53.096;23.226;2022-09-13T05:35:44;99623.94;;;11.64;81.54
56241;BME280;42155;53.096;23.226;2022-09-13T05:37:44;99637.13;;;11.76;81.28
56241;BME280;42155;53.096;23.226;2022-09-13T05:39:44;99635.59;;;11.83;81.16
56241;BME280;42155;53.096;23.226;2022-09-13T05:41:45;99630.28;;;11.83;80.75
56241;BME280;42155;53.096;23.226;2022-09-13T05:43:45;99629.31;;;11.84;80.99
56241;BME280;42155;53.096;23.226;2022-09-13T05:45:45;99609.81;;;11.73;81.04
56241;BME280;42155;53.096;23.226;2022-09-13T05:47:49;99633.81;;;11.93;81.11
56241;BME280;42155;53.096;23.226;2022-09-13T05:49:49;99642.19;;;11.98;80.61
56241;BME280;42155;53.096;23.226;2022-09-13T05:51:50;99642.31;;;12.06;80.75
56241;BME280;42155;53.096;23.226;2022-09-13T05:53:51;99638.69;;;12.07;80.38
56241;BME280;42155;53.096;23.226;2022-09-13T05:55:52;99641.50;;;12.25;80.01
56241;BME280;42155;53.096;23.226;2022-09-13T05:57:52;99633.75;;;12.32;80.14
56241;BME280;42155;53.096;23.226;2022-09-13T05:59:53;99630.50;;;12.47;79.33
56241;BME280;42155;53.096;23.226;2022-09-13T06:01:53;99627.22;;;13.38;77.25
56241;BME280;42155;53.096;23.226;2022-09-13T06:03:55;99624.88;;;14.24;74.86
56241;BME280;42155;53.096;23.226;2022-09-13T06:05:56;99626.66;;;14.59;73.39
56241;BME280;42155;53.096;23.226;2022-09-13T06:07:57;99620.25;;;15.12;71.94
56241;BME280;42155;53.096;23.226;2022-09-13T06:09:57;99573.50;;;15.99;69.34
56241;BME280;42155;53.096;23.226;2022-09-13T06:11:57;99620.41;;;17.62;65.48
56241;BME280;42155;53.096;23.226;2022-09-13T06:13:58;99613.66;;;17.66;64.43
56241;BME280;42155;53.096;23.226;2022-09-13T06:16:00;99612.28;;;17.08;65.91
56241;BME280;42155;53.096;23.226;2022-09-13T06:18:01;99614.41;;;16.57;67.00
56241;BME280;42155;53.096;23.226;2022-09-13T06:20:02;99617.47;;;16.05;68.23
56241;BME280;42155;53.096;23.226;2022-09-13T06:22:02;99615.41;;;15.66;69.24
56241;BME280;42155;53.096;23.226;2022-09-13T06:24:03;99575.69;;;15.29;69.51
56241;BME280;42155;53.096;23.226;2022-09-13T06:26:09;99616.81;;;15.95;68.22
56241;BME280;42155;53.096;23.226;2022-09-13T06:28:09;99622.81;;;15.97;67.86
56241;BME280;42155;53.096;23.226;2022-09-13T06:30:10;99618.44;;;15.71;67.73
56241;BME280;42155;53.096;23.226;2022-09-13T06:32:10;99615.69;;;15.47;68.77
56241;BME280;42155;53.096;23.226;2022-09-13T06:34:11;99587.88;;;15.23;69.18
56241;BME280;42155;53.096;23.226;2022-09-13T06:36:14;99607.38;;;15.66;68.34
56241;BME280;42155;53.096;23.226;2022-09-13T06:38:14;99605.06;;;15.71;68.17
56241;BME280;42155;53.096;23.226;2022-09-13T06:40:15;99609.69;;;15.61;68.24
56241;BME280;42155;53.096;23.226;2022-09-13T06:42:16;99606.34;;;15.59;68.30
56241;BME280;42155;53.096;23.226;2022-09-13T06:44:16;99586.69;;;15.68;67.83
56241;BME280;42155;53.096;23.226;2022-09-13T06:46:17;99604.41;;;15.77;67.36
56241;BME280;42155;53.096;23.226;2022-09-13T06:48:18;99601.72;;;15.77;67.65
56241;BME280;42155;53.096;23.226;2022-09-13T06:50:18;99603.16;;;15.56;67.86
56241;BME280;42155;53.096;23.226;2022-09-13T06:52:19;99603.63;;;15.35;68.32
56241;BME280;42155;53.096;23.226;2022-09-13T06:54:19;99599.75;;;15.21;69.07
56241;BME280;42155;53.096;23.226;2022-09-13T06:56:25;99606.25;;;15.18;69.48
56241;BME280;42155;53.096;23.226;2022-09-13T06:58:26;99605.94;;;15.21;69.30
56241;BME280;42155;53.096;23.226;2022-09-13T07:00:26;99597.88;;;15.13;68.96
56241;BME280;42155;53.096;23.226;2022-09-13T07:02:26;99603.53;;;15.10;69.49
56241;BME280;42155;53.096;23.226;2022-09-13T07:04:27;99605.84;;;15.05;69.39
56241;BME280;42155;53.096;23.226;2022-09-13T07:06:30;99593.63;;;14.94;69.96
56241;BME280;42155;53.096;23.226;2022-09-13T07:08:30;99593.09;;;14.91;70.24
56241;BME280;42155;53.096;23.226;2022-09-13T07:10:31;99598.13;;;15.02;69.91
56241;BME280;42155;53.096;23.226;2022-09-13T07:12:31;99598.84;;;15.04;69.65
56241;BME280;42155;53.096;23.226;2022-09-13T07:14:31;99599.78;;;14.95;70.38
56241;BME280;42155;53.096;23.226;2022-09-13T07:16:35;99598.44;;;14.91;70.47
56241;BME280;42155;53.096;23.226;2022-09-13T07:18:37;99600.81;;;14.94;70.33
56241;BME280;42155;53.096;23.226;2022-09-13T07:20:37;99597.16;;;15.03;70.22
56241;BME280;42155;53.096;23.226;2022-09-13T07:22:37;99580.88;;;15.22;69.60
56241;BME280;42155;53.096;23.226;2022-09-13T07:24:38;99583.28;;;15.50;68.19
56241;BME280;42155;53.096;23.226;2022-09-13T07:26:38;99593.97;;;15.50;68.27
56241;BME280;42155;53.096;23.226;2022-09-13T07:28:40;99589.94;;;15.46;68.18
56241;BME280;42155;53.096;23.226;2022-09-13T07:30:41;99587.28;;;15.46;67.99
56241;BME280;42155;53.096;23.226;2022-09-13T07:32:42;99584.09;;;15.50;67.80
56241;BME280;42155;53.096;23.226;2022-09-13T07:37:20;99566.53;;;15.48;67.84
56241;BME280;42155;53.096;23.226;2022-09-13T07:39:20;99581.66;;;15.73;67.26
56241;BME280;42155;53.096;23.226;2022-09-13T07:41:22;99579.00;;;15.98;66.82
56241;BME280;42155;53.096;23.226;2022-09-13T07:43:24;99576.13;;;16.24;65.68
56241;BME280;42155;53.096;23.226;2022-09-13T07:45:24;99570.53;;;16.58;64.61
56241;BME280;42155;53.096;23.226;2022-09-13T07:47:24;99577.47;;;17.00;64.27
56241;BME280;42155;53.096;23.226;2022-09-13T07:49:25;99576.03;;;17.20;63.63
56241;BME280;42155;53.096;23.226;2022-09-13T07:51:28;99562.63;;;17.20;63.30
56241;BME280;42155;53.096;23.226;2022-09-13T07:53:29;99584.19;;;17.27;63.10
56241;BME280;42155;53.096;23.226;2022-09-13T07:55:30;99578.53;;;17.22;63.21
56241;BME280;42155;53.096;23.226;2022-09-13T07:57:30;99573.56;;;17.11;62.91
56241;BME280;42155;53.096;23.226;2022-09-13T07:59:30;99567.25;;;16.95;63.00
56241;BME280;42155;53.096;23.226;2022-09-13T08:01:36;99562.78;;;16.71;63.08
56241;BME280;42155;53.096;23.226;2022-09-13T08:03:37;99539.63;;;16.31;63.44
56241;BME280;42155;53.096;23.226;2022-09-13T08:05:41;99578.94;;;16.47;63.51
56241;BME280;42155;53.096;23.226;2022-09-13T08:07:41;99577.63;;;16.35;64.05
56241;BME280;42155;53.096;23.226;2022-09-13T08:09:41;99569.94;;;16.23;63.94
56241;BME280;42155;53.096;23.226;2022-09-13T08:11:45;99571.13;;;16.04;64.94
56241;BME280;42155;53.096;23.226;2022-09-13T08:13:46;99573.63;;;15.90;65.42
56241;BME280;42155;53.096;23.226;2022-09-13T08:15:46;99559.88;;;15.60;66.24
56241;BME280;42155;53.096;23.226;2022-09-13T08:17:47;99574.31;;;15.67;66.60
56241;BME280;42155;53.096;23.226;2022-09-13T08:19:47;99572.91;;;15.55;66.59
56241;BME280;42155;53.096;23.226;2022-09-13T08:21:48;99580.25;;;15.45;66.69
56241;BME280;42155;53.096;23.226;2022-09-13T08:23:48;99558.66;;;15.30;66.85
56241;BME280;42155;53.096;23.226;2022-09-13T08:25:49;99570.91;;;15.57;67.17
56241;BME280;42155;53.096;23.226;2022-09-13T08:27:49;99554.75;;;15.91;66.54
56241;BME280;42155;53.096;23.226;2022-09-13T08:29:49;99567.91;;;16.42;65.17
56241;BME280;42155;53.096;23.226;2022-09-13T08:31:50;99558.09;;;16.82;65.15
56241;BME280;42155;53.096;23.226;2022-09-13T08:33:50;99562.97;;;17.17;63.49
56241;BME280;42155;53.096;23.226;2022-09-13T08:35:51;99567.41;;;17.33;62.48
56241;BME280;42155;53.096;23.226;2022-09-13T08:37:52;99545.56;;;17.13;62.26
56241;BME280;42155;53.096;23.226;2022-09-13T08:39:52;99560.91;;;17.27;62.78
56241;BME280;42155;53.096;23.226;2022-09-13T08:42:06;99561.56;;;17.29;62.88
56241;BME280;42155;53.096;23.226;2022-09-13T08:44:29;99539.88;;;17.08;62.87
56241;BME280;42155;53.096;23.226;2022-09-13T08:46:34;99561.66;;;17.13;62.75
56241;BME280;42155;53.096;23.226;2022-09-13T08:48:41;99554.69;;;16.96;63.47
56241;BME280;42155;53.096;23.226;2022-09-13T08:50:43;99562.28;;;16.84;63.70
56241;BME280;42155;53.096;23.226;2022-09-13T08:52:53;99558.97;;;16.74;63.79
56241;BME280;42155;53.096;23.226;2022-09-13T08:54:57;99532.41;;;16.48;63.95
56241;BME280;42155;53.096;23.226;2022-09-13T08:57:15;99529.72;;;16.48;63.89
56241;BME280;42155;53.096;23.226;2022-09-13T09:06:14;99513.25;;;16.67;63.44
56241;BME280;42155;53.096;23.226;2022-09-13T09:08:30;99544.84;;;17.19;63.16
56241;BME280;42155;53.096;23.226;2022-09-13T09:10:35;99547.16;;;17.53;62.33
56241;BME280;42155;53.096;23.226;2022-09-13T09:12:42;99541.47;;;17.79;61.76
56241;BME280;42155;53.096;23.226;2022-09-13T09:14:52;99543.25;;;17.87;60.81
56241;BME280;42155;53.096;23.226;2022-09-13T09:17:19;99544.34;;;17.93;61.15
56241;BME280;42155;53.096;23.226;2022-09-13T09:19:29;99543.13;;;18.03;60.56
56241;BME280;42155;53.096;23.226;2022-09-13T09:21:32;99515.50;;;17.95;60.14
56241;BME280;42155;53.096;23.226;2022-09-13T09:25:33;99541.56;;;18.24;60.28
56241;BME280;42155;53.096;23.226;2022-09-13T09:27:34;99546.75;;;18.25;61.08
56241;BME280;42155;53.096;23.226;2022-09-13T09:29:35;99530.91;;;18.16;59.50
56241;BME280;42155;53.096;23.226;2022-09-13T09:35:54;99548.16;;;18.21;58.85
56241;BME280;42155;53.096;23.226;2022-09-13T09:40:31;99537.78;;;17.72;58.46
56241;BME280;42155;53.096;23.226;2022-09-13T09:42:44;99550.94;;;17.67;59.38
56241;BME280;42155;53.096;23.226;2022-09-13T09:44:48;99549.81;;;17.62;59.31
56241;BME280;42155;53.096;23.226;2022-09-13T09:46:59;99542.34;;;17.49;59.22
56241;BME280;42155;53.096;23.226;2022-09-13T09:49:36;99542.44;;;17.33;59.50
56241;BME280;42155;53.096;23.226;2022-09-13T09:51:38;99539.97;;;17.23;60.41
56241;BME280;42155;53.096;23.226;2022-09-13T09:53:41;99532.59;;;17.25;60.63
56241;BME280;42155;53.096;23.226;2022-09-13T09:55:45;99539.63;;;17.26;60.13
56241;BME280;42155;53.096;23.226;2022-09-13T10:00:09;99539.09;;;17.30;59.89
56241;BME280;42155;53.096;23.226;2022-09-13T10:02:20;99537.53;;;17.36;59.38
56241;BME280;42155;53.096;23.226;2022-09-13T10:04:22;99534.38;;;17.33;60.22
56241;BME280;42155;53.096;23.226;2022-09-13T10:06:24;99547.63;;;17.34;59.83
56241;BME280;42155;53.096;23.226;2022-09-13T10:08:29;99538.06;;;17.31;59.93
56241;BME280;42155;53.096;23.226;2022-09-13T10:10:37;99532.72;;;17.31;59.85
56241;BME280;42155;53.096;23.226;2022-09-13T10:12:39;99533.91;;;17.29;59.30
56241;BME280;42155;53.096;23.226;2022-09-13T10:14:44;99528.72;;;17.27;59.48
56241;BME280;42155;53.096;23.226;2022-09-13T10:16:45;99535.09;;;17.26;59.74
56241;BME280;42155;53.096;23.226;2022-09-13T10:18:46;99528.41;;;17.22;59.83
56241;BME280;42155;53.096;23.226;2022-09-13T10:23:20;99530.44;;;17.20;59.73
56241;BME280;42155;53.096;23.226;2022-09-13T10:25:22;99521.38;;;17.21;59.60
56241;BME280;42155;53.096;23.226;2022-09-13T10:27:31;99516.31;;;17.26;58.97
56241;BME280;42155;53.096;23.226;2022-09-13T10:29:32;99523.19;;;17.29;57.89
56241;BME280;42155;53.096;23.226;2022-09-13T10:31:36;99501.94;;;17.19;57.72
56241;BME280;42155;53.096;23.226;2022-09-13T10:33:40;99511.84;;;17.19;58.33
56241;BME280;42155;53.096;23.226;2022-09-13T10:35:47;99514.41;;;17.12;59.22
56241;BME280;42155;53.096;23.226;2022-09-13T10:37:47;99508.03;;;17.13;58.56
56241;BME280;42155;53.096;23.226;2022-09-13T10:40:00;99516.38;;;17.18;58.65
56241;BME280;42155;53.096;23.226;2022-09-13T10:42:05;99515.72;;;17.16;59.33
56241;BME280;42155;53.096;23.226;2022-09-13T10:44:28;99513.22;;;17.15;59.17
56241;BME280;42155;53.096;23.226;2022-09-13T10:46:35;99505.63;;;17.18;59.30
56241;BME280;42155;53.096;23.226;2022-09-13T10:48:46;99500.78;;;17.45;59.57
56241;BME280;42155;53.096;23.226;2022-09-13T10:51:07;99499.72;;;17.77;58.70
56241;BME280;42155;53.096;23.226;2022-09-13T10:53:35;99498.09;;;18.05;57.99
56241;BME280;42155;53.096;23.226;2022-09-13T10:55:37;99475.72;;;18.13;57.87
56241;BME280;42155;53.096;23.226;2022-09-13T10:57:37;99483.97;;;18.26;57.61
56241;BME280;42155;53.096;23.226;2022-09-13T10:59:37;99487.13;;;18.45;57.17
56241;BME280;42155;53.096;23.226;2022-09-13T11:01:45;99478.78;;;18.54;55.88
56241;BME280;42155;53.096;23.226;2022-09-13T11:18:33;99449.56;;;18.51;55.55
56241;BME280;42155;53.096;23.226;2022-09-13T11:20:42;99448.44;;;18.61;55.42
56241;BME280;42155;53.096;23.226;2022-09-13T11:25:12;99448.00;;;18.72;54.89
56241;BME280;42155;53.096;23.226;2022-09-13T11:27:27;99441.69;;;18.79;54.71
56241;BME280;42155;53.096;23.226;2022-09-13T11:29:33;99437.13;;;18.80;54.49
56241;BME280;42155;53.096;23.226;2022-09-13T11:31:48;99440.03;;;18.78;54.68
56241;BME280;42155;53.096;23.226;2022-09-13T11:40:59;99422.66;;;18.96;53.35
56241;BME280;42155;53.096;23.226;2022-09-13T11:45:30;99401.41;;;18.50;53.71
56241;BME280;42155;53.096;23.226;2022-09-13T11:52:49;99408.75;;;18.41;55.04
56241;BME280;42155;53.096;23.226;2022-09-13T11:57:10;99380.53;;;18.52;54.81
56241;BME280;42155;53.096;23.226;2022-09-13T11:59:20;99387.41;;;18.69;53.85
56241;BME280;42155;53.096;23.226;2022-09-13T12:01:27;99386.69;;;18.67;53.99
56241;BME280;42155;53.096;23.226;2022-09-13T12:05:40;99388.75;;;18.65;53.94
56241;BME280;42155;53.096;23.226;2022-09-13T12:07:49;99353.50;;;18.39;53.56
56241;BME280;42155;53.096;23.226;2022-09-13T12:09:56;99370.56;;;18.46;53.78
56241;BME280;42155;53.096;23.226;2022-09-13T12:12:05;99385.56;;;18.55;53.86
56241;BME280;42155;53.096;23.226;2022-09-13T12:14:11;99381.47;;;18.59;54.04
56241;BME280;42155;53.096;23.226;2022-09-13T12:18:42;99369.59;;;18.90;52.87
56241;BME280;42155;53.096;23.226;2022-09-13T12:20:47;99356.94;;;18.83;52.94
56241;BME280;42155;53.096;23.226;2022-09-13T12:22:50;99372.88;;;19.06;52.25
56241;BME280;42155;53.096;23.226;2022-09-13T12:24:55;99370.00;;;19.08;51.21
56241;BME280;42155;53.096;23.226;2022-09-13T12:31:23;99359.88;;;18.89;50.35
56241;BME280;42155;53.096;23.226;2022-09-13T12:33:25;99336.47;;;18.46;50.26
56241;BME280;42155;53.096;23.226;2022-09-13T12:35:35;99347.56;;;18.43;50.84
56241;BME280;42155;53.096;23.226;2022-09-13T13:03:18;99312.78;;;17.84;53.44
56241;BME280;42155;53.096;23.226;2022-09-13T13:05:25;99338.56;;;18.00;53.75
56241;BME280;42155;53.096;23.226;2022-09-13T13:07:27;99324.88;;;17.95;53.56